sensor_id;sensor_type;location;lat;lon;timestamp;pressure;altitude;pressure_sealevel;temperature;humidity
15382;BME280;7789;51.364;12.358;2023-05-22T00:00:19;100284.94;;;20.36;84.59
15382;BME280;7789;51.364;12.358;2023-05-22T00:05:24;100288.53;;;20.28;85.36
15382;BME280;7789;51.364;12.358;2023-05-22T00:10:33;100280.13;;;20.25;85.84
15382;BME280;7789;51.364;12.358;2023-05-22T00:15:39;100275.41;;;20.20;85.76
15382;BME280;7789;51.364;12.358;2023-05-22T00:20:44;100281.44;;;20.14;86.36
15382;BME280;7789;51.364;12.358;2023-05-22T00:25:53;100284.41;;;20.05;87.03
15382;BME280;7789;51.364;12.358;2023-05-22T00:30:59;100278.81;;;20.00;87.02
15382;BME280;7789;51.364;12.358;2023-05-22T00:36:07;100269.97;;;19.93;87.50
15382;BME280;7789;51.364;12.358;2023-05-22T00:41:13;100275.56;;;19.83;88.27
15382;BME280;7789;51.364;12.358;2023-05-22T00:46:20;100275.84;;;19.74;88.35
15382;BME280;7789;51.364;12.358;2023-05-22T00:51:26;100263.88;;;19.63;88.96
15382;BME280;7789;51.364;12.358;2023-05-22T00:56:38;100265.63;;;19.56;89.48
15382;BME280;7789;51.364;12.358;2023-05-22T01:01:46;100260.25;;;19.50;89.87
15382;BME280;7789;51.364;12.358;2023-05-22T01:06:56;100259.16;;;19.44;89.99
15382;BME280;7789;51.364;12.358;2023-05-22T01:12:20;100256.41;;;19.38;90.66
15382;BME280;7789;51.364;12.358;2023-05-22T01:17:32;100261.81;;;19.30;91.12
15382;BME280;7789;51.364;12.358;2023-05-22T01:28:35;100260.63;;;19.18;91.60
15382;BME280;7789;51.364;12.358;2023-05-22T01:33:50;100251.75;;;19.11;91.91
15382;BME280;7789;51.364;12.358;2023-05-22T01:39:03;100255.09;;;19.05;91.65
15382;BME280;7789;51.364;12.358;2023-05-22T01:44:14;100256.47;;;19.01;92.28
15382;BME280;7789;51.364;12.358;2023-05-22T01:49:31;100254.56;;;18.95;92.46
15382;BME280;7789;51.364;12.358;2023-05-22T01:54:49;100264.69;;;18.91;92.45
15382;BME280;7789;51.364;12.358;2023-05-22T02:00:00;100268.53;;;18.89;92.15
15382;BME280;7789;51.364;12.358;2023-05-22T02:05:14;100265.44;;;18.85;92.09
15382;BME280;7789;51.364;12.358;2023-05-22T02:10:25;100262.47;;;18.80;92.08
15382;BME280;7789;51.364;12.358;2023-05-22T02:15:32;100266.34;;;18.78;91.80
15382;BME280;7789;51.364;12.358;2023-05-22T02:20:41;100264.03;;;18.75;92.10
15382;BME280;7789;51.364;12.358;2023-05-22T02:25:46;100264.56;;;18.71;92.23
15382;BME280;7789;51.364;12.358;2023-05-22T02:30:53;100257.53;;;18.63;92.66
15382;BME280;7789;51.364;12.358;2023-05-22T02:36:05;100264.09;;;18.53;93.24
15382;BME280;7789;51.364;12.358;2023-05-22T02:41:13;100260.16;;;18.49;92.80
15382;BME280;7789;51.364;12.358;2023-05-22T02:46:26;100258.56;;;18.40;93.28
15382;BME280;7789;51.364;12.358;2023-05-22T02:51:32;100250.50;;;18.33;93.59
15382;BME280;7789;51.364;12.358;2023-05-22T02:56:38;100244.09;;;18.28;93.56
15382;BME280;7789;51.364;12.358;2023-05-22T03:01:42;100244.41;;;18.25;93.61
15382;BME280;7789;51.364;12.358;2023-05-22T03:06:53;100244.28;;;18.18;93.79
15382;BME280;7789;51.364;12.358;2023-05-22T03:12:00;100235.91;;;18.15;93.27
15382;BME280;7789;51.364;12.358;2023-05-22T03:17:09;100236.22;;;18.12;93.18
15382;BME280;7789;51.364;12.358;2023-05-22T03:22:21;100233.25;;;18.15;92.37
15382;BME280;7789;51.364;12.358;2023-05-22T03:27:25;100234.31;;;18.06;92.17
15382;BME280;7789;51.364;12.358;2023-05-22T03:32:36;100234.81;;;18.01;92.33
15382;BME280;7789;51.364;12.358;2023-05-22T03:37:51;100236.81;;;17.99;91.85
15382;BME280;7789;51.364;12.358;2023-05-22T03:43:01;100243.31;;;17.97;91.75
15382;BME280;7789;51.364;12.358;2023-05-22T03:48:08;100240.66;;;17.97;91.48
15382;BME280;7789;51.364;12.358;2023-05-22T03:53:17;100247.94;;;17.95;91.66
15382;BME280;7789;51.364;12.358;2023-05-22T03:58:22;100242.63;;;17.95;91.25
15382;BME280;7789;51.364;12.358;2023-05-22T04:03:28;100237.03;;;17.98;91.16
15382;BME280;7789;51.364;12.358;2023-05-22T04:08:39;100222.44;;;18.02;91.13
15382;BME280;7789;51.364;12.358;2023-05-22T04:13:44;100236.16;;;18.05;90.67
15382;BME280;7789;51.364;12.358;2023-05-22T04:18:50;100232.25;;;18.16;90.15
15382;BME280;7789;51.364;12.358;2023-05-22T04:24:22;100235.03;;;18.22;90.34
15382;BME280;7789;51.364;12.358;2023-05-22T04:29:31;100232.00;;;18.25;89.93
15382;BME280;7789;51.364;12.358;2023-05-22T04:35:03;100230.78;;;18.36;89.86
15382;BME280;7789;51.364;12.358;2023-05-22T04:40:11;100238.53;;;18.37;89.43
15382;BME280;7789;51.364;12.358;2023-05-22T04:45:27;100249.25;;;18.44;89.03
15382;BME280;7789;51.364;12.358;2023-05-22T04:50:32;100241.69;;;18.55;88.47
15382;BME280;7789;51.364;12.358;2023-05-22T04:55:42;100244.94;;;18.79;87.13
15382;BME280;7789;51.364;12.358;2023-05-22T05:00:47;100232.72;;;18.93;86.27
15382;BME280;7789;51.364;12.358;2023-05-22T05:05:54;100235.31;;;19.15;85.50
15382;BME280;7789;51.364;12.358;2023-05-22T05:11:07;100230.19;;;19.28;84.06
15382;BME280;7789;51.364;12.358;2023-05-22T05:16:14;100224.72;;;19.65;82.43
15382;BME280;7789;51.364;12.358;2023-05-22T05:21:18;100228.56;;;19.98;80.72
15382;BME280;7789;51.364;12.358;2023-05-22T05:26:31;100219.69;;;20.27;79.03
15382;BME280;7789;51.364;12.358;2023-05-22T05:31:42;100234.25;;;20.58;77.64
15382;BME280;7789;51.364;12.358;2023-05-22T05:36:56;100222.06;;;20.91;75.73
15382;BME280;7789;51.364;12.358;2023-05-22T05:42:09;100230.09;;;21.38;73.83
15382;BME280;7789;51.364;12.358;2023-05-22T05:47:21;100229.28;;;21.91;70.93
15382;BME280;7789;51.364;12.358;2023-05-22T05:52:29;100229.91;;;22.12;69.97
15382;BME280;7789;51.364;12.358;2023-05-22T05:57:40;100231.22;;;22.42;68.79
15382;BME280;7789;51.364;12.358;2023-05-22T06:02:51;100225.69;;;22.63;67.35
15382;BME280;7789;51.364;12.358;2023-05-22T06:07:56;100235.72;;;22.87;66.32
15382;BME280;7789;51.364;12.358;2023-05-22T06:13:05;100232.19;;;22.99;65.46
15382;BME280;7789;51.364;12.358;2023-05-22T06:18:10;100236.41;;;23.39;64.53
15382;BME280;7789;51.364;12.358;2023-05-22T06:23:21;100236.63;;;24.57;60.79
15382;BME280;7789;51.364;12.358;2023-05-22T06:28:31;100229.91;;;25.32;57.60
15382;BME280;7789;51.364;12.358;2023-05-22T06:33:37;100234.97;;;25.40;57.29
15382;BME280;7789;51.364;12.358;2023-05-22T06:38:43;100229.56;;;25.94;55.81
15382;BME280;7789;51.364;12.358;2023-05-22T06:43:52;100219.00;;;26.74;53.02
15382;BME280;7789;51.364;12.358;2023-05-22T06:48:58;100214.00;;;26.14;54.50
15382;BME280;7789;51.364;12.358;2023-05-22T06:54:03;100219.97;;;26.28;54.50
15382;BME280;7789;51.364;12.358;2023-05-22T06:59:12;100212.72;;;26.17;54.25
15382;BME280;7789;51.364;12.358;2023-05-22T07:04:18;100213.28;;;26.07;54.62
15382;BME280;7789;51.364;12.358;2023-05-22T07:09:22;100215.00;;;26.02;54.50
15382;BME280;7789;51.364;12.358;2023-05-22T07:14:29;100213.88;;;26.09;54.67
15382;BME280;7789;51.364;12.358;2023-05-22T07:19:35;100205.78;;;26.39;53.96
15382;BME280;7789;51.364;12.358;2023-05-22T07:24:40;100220.50;;;26.48;53.50
15382;BME280;7789;51.364;12.358;2023-05-22T07:29:48;100217.69;;;26.54;53.58
15382;BME280;7789;51.364;12.358;2023-05-22T07:34:54;100203.97;;;26.51;54.14
15382;BME280;7789;51.364;12.358;2023-05-22T07:40:02;100213.91;;;26.32;54.16
15382;BME280;7789;51.364;12.358;2023-05-22T07:45:28;100213.06;;;26.20;54.13
15382;BME280;7789;51.364;12.358;2023-05-22T07:50:36;100204.88;;;26.04;54.89
15382;BME280;7789;51.364;12.358;2023-05-22T07:55:40;100214.66;;;25.98;54.65
15382;BME280;7789;51.364;12.358;2023-05-22T08:00:50;100210.25;;;26.15;55.19
15382;BME280;7789;51.364;12.358;2023-05-22T08:05:55;100210.50;;;26.55;54.36
15382;BME280;7789;51.364;12.358;2023-05-22T08:11:02;100203.38;;;26.83;53.22
15382;BME280;7789;51.364;12.358;2023-05-22T08:16:25;100203.34;;;26.94;52.15
15382;BME280;7789;51.364;12.358;2023-05-22T08:21:34;100199.41;;;26.97;52.02
15382;BME280;7789;51.364;12.358;2023-05-22T08:26:52;100200.22;;;26.86;52.66
15382;BME280;7789;51.364;12.358;2023-05-22T08:32:01;100199.38;;;26.63;51.96
15382;BME280;7789;51.364;12.358;2023-05-22T08:37:06;100200.09;;;26.81;51.79
15382;BME280;7789;51.364;12.358;2023-05-22T08:42:14;100194.38;;;26.89;51.02
15382;BME280;7789;51.364;12.358;2023-05-22T08:47:23;100188.75;;;27.13;50.57
15382;BME280;7789;51.364;12.358;2023-05-22T08:52:41;100185.22;;;27.36;50.08
15382;BME280;7789;51.364;12.358;2023-05-22T08:58:05;100182.56;;;27.24;50.83
15382;BME280;7789;51.364;12.358;2023-05-22T09:03:11;100181.81;;;27.40;49.65
15382;BME280;7789;51.364;12.358;2023-05-22T09:08:16;100171.81;;;27.24;48.85
15382;BME280;7789;51.364;12.358;2023-05-22T09:13:24;100163.84;;;27.29;48.91
15382;BME280;7789;51.364;12.358;2023-05-22T09:18:37;100155.19;;;27.39;49.03
15382;BME280;7789;51.364;12.358;2023-05-22T09:23:48;100162.75;;;27.53;47.04
15382;BME280;7789;51.364;12.358;2023-05-22T09:28:54;100159.47;;;27.51;46.32
15382;BME280;7789;51.364;12.358;2023-05-22T09:34:03;100142.66;;;27.44;45.88
15382;BME280;7789;51.364;12.358;2023-05-22T09:39:09;100149.63;;;27.29;45.54
15382;BME280;7789;51.364;12.358;2023-05-22T09:44:15;100142.78;;;27.10;44.36
15382;BME280;7789;51.364;12.358;2023-05-22T09:49:25;100148.47;;;27.13;42.97
15382;BME280;7789;51.364;12.358;2023-05-22T09:54:33;100151.78;;;27.15;44.49
15382;BME280;7789;51.364;12.358;2023-05-22T09:59:40;100148.34;;;27.20;44.69
15382;BME280;7789;51.364;12.358;2023-05-22T10:04:49;100147.44;;;27.14;44.49
15382;BME280;7789;51.364;12.358;2023-05-22T10:10:01;100145.19;;;27.23;44.71
15382;BME280;7789;51.364;12.358;2023-05-22T10:15:11;100133.66;;;27.22;43.22
15382;BME280;7789;51.364;12.358;2023-05-22T10:20:20;100131.88;;;27.28;42.80
15382;BME280;7789;51.364;12.358;2023-05-22T10:25:26;100131.75;;;27.34;43.17
15382;BME280;7789;51.364;12.358;2023-05-22T10:30:50;100125.84;;;27.49;43.48
15382;BME280;7789;51.364;12.358;2023-05-22T10:36:02;100140.13;;;27.66;43.64
15382;BME280;7789;51.364;12.358;2023-05-22T10:41:08;100109.56;;;27.55;43.57
15382;BME280;7789;51.364;12.358;2023-05-22T10:46:17;100112.06;;;27.73;43.19
15382;BME280;7789;51.364;12.358;2023-05-22T10:51:33;100104.09;;;27.78;42.76
15382;BME280;7789;51.364;12.358;2023-05-22T10:57:08;100097.16;;;27.82;42.98
15382;BME280;7789;51.364;12.358;2023-05-22T11:02:25;100099.44;;;28.07;42.23
15382;BME280;7789;51.364;12.358;2023-05-22T11:07:39;100104.75;;;28.02;41.90
15382;BME280;7789;51.364;12.358;2023-05-22T11:12:52;100102.25;;;28.12;42.41
15382;BME280;7789;51.364;12.358;2023-05-22T11:18:20;100099.06;;;28.15;41.32
15382;BME280;7789;51.364;12.358;2023-05-22T11:23:41;100101.50;;;28.00;41.03
15382;BME280;7789;51.364;12.358;2023-05-22T11:29:07;100089.03;;;28.10;41.10
15382;BME280;7789;51.364;12.358;2023-05-22T11:34:11;100086.09;;;28.12;40.30
15382;BME280;7789;51.364;12.358;2023-05-22T11:39:31;100099.53;;;27.95;40.53
15382;BME280;7789;51.364;12.358;2023-05-22T11:44:38;100089.09;;;27.82;39.56
15382;BME280;7789;51.364;12.358;2023-05-22T11:49:51;100071.19;;;27.71;39.43
15382;BME280;7789;51.364;12.358;2023-05-22T11:54:59;100066.56;;;27.83;39.27
15382;BME280;7789;51.364;12.358;2023-05-22T12:00:05;100059.22;;;27.79;39.29
15382;BME280;7789;51.364;12.358;2023-05-22T12:05:21;100064.66;;;27.84;39.28
15382;BME280;7789;51.364;12.358;2023-05-22T12:10:29;100066.47;;;27.78;38.96
15382;BME280;7789;51.364;12.358;2023-05-22T12:15:43;100055.72;;;27.95;38.94
15382;BME280;7789;51.364;12.358;2023-05-22T12:20:51;100051.63;;;27.92;39.01
15382;BME280;7789;51.364;12.358;2023-05-22T12:25:59;100052.63;;;27.86;38.80
15382;BME280;7789;51.364;12.358;2023-05-22T12:31:06;100062.22;;;27.82;37.72
15382;BME280;7789;51.364;12.358;2023-05-22T12:36:10;100059.28;;;27.84;37.63
15382;BME280;7789;51.364;12.358;2023-05-22T12:41:17;100044.00;;;27.84;38.05
15382;BME280;7789;51.364;12.358;2023-05-22T12:46:24;100034.59;;;27.87;38.42
15382;BME280;7789;51.364;12.358;2023-05-22T12:51:34;100033.25;;;27.84;38.71
15382;BME280;7789;51.364;12.358;2023-05-22T12:56:49;100030.28;;;27.86;38.10
15382;BME280;7789;51.364;12.358;2023-05-22T13:01:54;100024.41;;;27.89;38.35
15382;BME280;7789;51.364;12.358;2023-05-22T13:07:09;100008.22;;;28.00;37.57
15382;BME280;7789;51.364;12.358;2023-05-22T13:12:18;100014.22;;;28.07;37.32
15382;BME280;7789;51.364;12.358;2023-05-22T13:17:24;100025.06;;;28.12;37.37
15382;BME280;7789;51.364;12.358;2023-05-22T13:22:28;100007.78;;;28.08;37.43
15382;BME280;7789;51.364;12.358;2023-05-22T13:27:43;99992.66;;;28.24;36.80
15382;BME280;7789;51.364;12.358;2023-05-22T13:32:51;100001.06;;;28.27;37.11
15382;BME280;7789;51.364;12.358;2023-05-22T13:37:58;100002.94;;;28.27;37.57
15382;BME280;7789;51.364;12.358;2023-05-22T13:43:06;100001.91;;;28.11;36.77
15382;BME280;7789;51.364;12.358;2023-05-22T13:48:16;99982.28;;;28.11;36.65
15382;BME280;7789;51.364;12.358;2023-05-22T13:53:28;99984.22;;;28.15;37.18
15382;BME280;7789;51.364;12.358;2023-05-22T13:58:49;99995.84;;;28.21;36.80
15382;BME280;7789;51.364;12.358;2023-05-22T14:03:59;99983.47;;;28.20;36.08
15382;BME280;7789;51.364;12.358;2023-05-22T14:09:04;99977.69;;;28.28;35.42
15382;BME280;7789;51.364;12.358;2023-05-22T14:14:17;99966.72;;;28.34;35.47
15382;BME280;7789;51.364;12.358;2023-05-22T14:19:28;99965.25;;;28.43;34.58
15382;BME280;7789;51.364;12.358;2023-05-22T14:24:37;99964.22;;;28.49;34.56
15382;BME280;7789;51.364;12.358;2023-05-22T14:29:56;99962.44;;;28.55;33.62
15382;BME280;7789;51.364;12.358;2023-05-22T14:35:04;99946.59;;;28.58;33.87
15382;BME280;7789;51.364;12.358;2023-05-22T14:40:10;99938.88;;;28.67;33.00
15382;BME280;7789;51.364;12.358;2023-05-22T14:45:34;99928.47;;;28.75;33.29
15382;BME280;7789;51.364;12.358;2023-05-22T14:50:39;99930.47;;;28.84;32.16
15382;BME280;7789;51.364;12.358;2023-05-22T14:55:49;99933.94;;;28.85;32.58
15382;BME280;7789;51.364;12.358;2023-05-22T15:01:10;99911.06;;;28.82;31.78
15382;BME280;7789;51.364;12.358;2023-05-22T15:06:17;99912.50;;;28.90;32.04
15382;BME280;7789;51.364;12.358;2023-05-22T15:11:21;99912.16;;;28.86;32.31
15382;BME280;7789;51.364;12.358;2023-05-22T15:16:28;99905.38;;;28.79;32.20
15382;BME280;7789;51.364;12.358;2023-05-22T15:21:33;99913.09;;;28.71;32.49
15382;BME280;7789;51.364;12.358;2023-05-22T15:26:39;99901.25;;;28.72;32.25
15382;BME280;7789;51.364;12.358;2023-05-22T15:31:46;99903.03;;;28.61;31.77
15382;BME280;7789;51.364;12.358;2023-05-22T15:36:53;99891.94;;;28.58;31.85
15382;BME280;7789;51.364;12.358;2023-05-22T15:41:59;99890.06;;;28.58;31.31
15382;BME280;7789;51.364;12.358;2023-05-22T15:47:10;99897.22;;;28.48;30.71
15382;BME280;7789;51.364;12.358;2023-05-22T15:52:25;99892.06;;;28.25;32.35
15382;BME280;7789;51.364;12.358;2023-05-22T15:57:31;99877.19;;;28.17;32.21
15382;BME280;7789;51.364;12.358;2023-05-22T16:02:39;99880.34;;;28.09;32.76
15382;BME280;7789;51.364;12.358;2023-05-22T16:07:44;99884.81;;;28.04;32.02
15382;BME280;7789;51.364;12.358;2023-05-22T16:12:53;99876.38;;;27.95;32.29
15382;BME280;7789;51.364;12.358;2023-05-22T16:18:11;99884.78;;;27.99;32.37
15382;BME280;7789;51.364;12.358;2023-05-22T16:23:18;99886.34;;;27.95;34.25
15382;BME280;7789;51.364;12.358;2023-05-22T16:28:24;99883.31;;;27.91;36.05
15382;BME280;7789;51.364;12.358;2023-05-22T16:33:34;99881.66;;;27.85;35.00
15382;BME280;7789;51.364;12.358;2023-05-22T16:38:41;99885.88;;;27.81;35.91
15382;BME280;7789;51.364;12.358;2023-05-22T16:43:45;99877.00;;;27.64;35.94
15382;BME280;7789;51.364;12.358;2023-05-22T16:48:58;99885.81;;;27.60;36.35
15382;BME280;7789;51.364;12.358;2023-05-22T16:54:19;99882.09;;;27.44;36.63
15382;BME280;7789;51.364;12.358;2023-05-22T16:59:26;99873.00;;;27.29;36.15
15382;BME280;7789;51.364;12.358;2023-05-22T17:04:34;99881.94;;;27.18;36.31
15382;BME280;7789;51.364;12.358;2023-05-22T17:09:50;99877.19;;;27.08;36.91
15382;BME280;7789;51.364;12.358;2023-05-22T17:15:24;99869.59;;;26.89;36.28
15382;BME280;7789;51.364;12.358;2023-05-22T17:21:30;99866.50;;;26.80;36.50
15382;BME280;7789;51.364;12.358;2023-05-22T17:26:53;99866.00;;;26.67;36.78
15382;BME280;7789;51.364;12.358;2023-05-22T17:31:57;99872.47;;;26.55;36.94
15382;BME280;7789;51.364;12.358;2023-05-22T17:37:31;99879.84;;;26.48;36.67
15382;BME280;7789;51.364;12.358;2023-05-22T17:43:07;99868.00;;;26.32;36.91
15382;BME280;7789;51.364;12.358;2023-05-22T17:48:19;99863.25;;;26.23;36.98
15382;BME280;7789;51.364;12.358;2023-05-22T17:53:31;99856.28;;;26.10;37.40
15382;BME280;7789;51.364;12.358;2023-05-22T17:58:39;99864.38;;;25.99;37.84
15382;BME280;7789;51.364;12.358;2023-05-22T18:03:44;99869.88;;;25.92;37.96
15382;BME280;7789;51.364;12.358;2023-05-22T18:08:52;99861.22;;;25.79;38.05
15382;BME280;7789;51.364;12.358;2023-05-22T18:13:58;99856.13;;;25.66;38.38
15382;BME280;7789;51.364;12.358;2023-05-22T18:19:07;99844.38;;;25.55;38.61
15382;BME280;7789;51.364;12.358;2023-05-22T18:24:20;99855.22;;;25.49;39.32
15382;BME280;7789;51.364;12.358;2023-05-22T18:29:34;99858.34;;;25.34;39.38
15382;BME280;7789;51.364;12.358;2023-05-22T18:34:45;99849.72;;;25.21;39.77
15382;BME280;7789;51.364;12.358;2023-05-22T18:39:54;99857.72;;;25.09;40.64
15382;BME280;7789;51.364;12.358;2023-05-22T18:44:58;99859.09;;;25.00;40.62
15382;BME280;7789;51.364;12.358;2023-05-22T18:50:12;99865.25;;;24.89;41.39
15382;BME280;7789;51.364;12.358;2023-05-22T18:55:29;99878.63;;;24.78;42.09
15382;BME280;7789;51.364;12.358;2023-05-22T19:00:35;99874.97;;;24.61;42.14
15382;BME280;7789;51.364;12.358;2023-05-22T19:05:49;99881.84;;;24.51;42.85
15382;BME280;7789;51.364;12.358;2023-05-22T19:11:32;99889.59;;;24.41;43.50
15382;BME280;7789;51.364;12.358;2023-05-22T19:17:50;99887.53;;;24.25;43.92
15382;BME280;7789;51.364;12.358;2023-05-22T19:23:22;99895.50;;;24.13;44.64
15382;BME280;7789;51.364;12.358;2023-05-22T19:28:30;99885.47;;;24.09;44.26
15382;BME280;7789;51.364;12.358;2023-05-22T19:33:48;99891.72;;;24.03;44.31
15382;BME280;7789;51.364;12.358;2023-05-22T19:39:00;99895.28;;;23.97;44.88
15382;BME280;7789;51.364;12.358;2023-05-22T19:44:14;99901.72;;;23.89;44.96
15382;BME280;7789;51.364;12.358;2023-05-22T19:49:21;99903.03;;;23.80;44.89
15382;BME280;7789;51.364;12.358;2023-05-22T19:54:28;99909.25;;;23.74;45.42
15382;BME280;7789;51.364;12.358;2023-05-22T19:59:36;99912.00;;;23.68;45.82
15382;BME280;7789;51.364;12.358;2023-05-22T20:04:49;99909.84;;;23.58;45.48
15382;BME280;7789;51.364;12.358;2023-05-22T20:09:54;99936.16;;;23.55;46.17
15382;BME280;7789;51.364;12.358;2023-05-22T20:15:00;99981.09;;;23.58;46.01
15382;BME280;7789;51.364;12.358;2023-05-22T20:20:10;99926.13;;;23.50;45.96
15382;BME280;7789;51.364;12.358;2023-05-22T20:25:19;99948.06;;;23.52;46.33
15382;BME280;7789;51.364;12.358;2023-05-22T20:30:37;99937.41;;;23.52;46.98
15382;BME280;7789;51.364;12.358;2023-05-22T20:35:43;99952.63;;;23.52;46.58
15382;BME280;7789;51.364;12.358;2023-05-22T20:40:56;99951.19;;;23.49;46.34
15382;BME280;7789;51.364;12.358;2023-05-22T20:46:07;99947.09;;;23.47;46.83
15382;BME280;7789;51.364;12.358;2023-05-22T20:51:13;99937.88;;;23.43;46.99
15382;BME280;7789;51.364;12.358;2023-05-22T20:56:22;99915.09;;;23.40;47.26
15382;BME280;7789;51.364;12.358;2023-05-22T21:01:58;99908.59;;;23.36;48.17
15382;BME280;7789;51.364;12.358;2023-05-22T21:07:03;99889.06;;;23.18;49.48
15382;BME280;7789;51.364;12.358;2023-05-22T21:12:20;99874.84;;;22.93;50.95
15382;BME280;7789;51.364;12.358;2023-05-22T21:17:37;99874.34;;;22.78;52.64
15382;BME280;7789;51.364;12.358;2023-05-22T21:22:50;99877.91;;;22.66;53.82
15382;BME280;7789;51.364;12.358;2023-05-22T21:28:19;99877.63;;;22.49;54.85
15382;BME280;7789;51.364;12.358;2023-05-22T21:33:26;99880.75;;;22.40;55.79
15382;BME280;7789;51.364;12.358;2023-05-22T21:38:33;99890.41;;;22.21;56.49
15382;BME280;7789;51.364;12.358;2023-05-22T21:43:44;99885.13;;;22.15;56.90
15382;BME280;7789;51.364;12.358;2023-05-22T21:48:56;99885.41;;;21.94;57.61
15382;BME280;7789;51.364;12.358;2023-05-22T21:54:09;99894.66;;;21.78;58.20
15382;BME280;7789;51.364;12.358;2023-05-22T21:59:14;99907.16;;;21.71;58.37
15382;BME280;7789;51.364;12.358;2023-05-22T22:04:29;99917.38;;;21.74;58.98
15382;BME280;7789;51.364;12.358;2023-05-22T22:09:36;99912.88;;;21.62;60.06
15382;BME280;7789;51.364;12.358;2023-05-22T22:14:42;99916.19;;;21.64;60.43
15382;BME280;7789;51.364;12.358;2023-05-22T22:19:56;99914.94;;;21.53;61.63
15382;BME280;7789;51.364;12.358;2023-05-22T22:25:01;99901.81;;;21.52;62.00
15382;BME280;7789;51.364;12.358;2023-05-22T22:30:07;99908.41;;;21.43;63.47
15382;BME280;7789;51.364;12.358;2023-05-22T22:35:17;99911.28;;;21.28;65.19
15382;BME280;7789;51.364;12.358;2023-05-22T22:40:24;99900.22;;;21.18;65.68
15382;BME280;7789;51.364;12.358;2023-05-22T22:45:31;99910.06;;;21.11;66.02
15382;BME280;7789;51.364;12.358;2023-05-22T22:50:40;99911.06;;;21.04;67.50
15382;BME280;7789;51.364;12.358;2023-05-22T22:55:53;99911.88;;;20.98;67.85
15382;BME280;7789;51.364;12.358;2023-05-22T23:01:02;99908.16;;;20.92;67.86
15382;BME280;7789;51.364;12.358;2023-05-22T23:06:17;99902.88;;;20.86;68.81
15382;BME280;7789;51.364;12.358;2023-05-22T23:11:22;99908.53;;;20.76;69.06
15382;BME280;7789;51.364;12.358;2023-05-22T23:16:32;99905.63;;;20.65;69.26
15382;BME280;7789;51.364;12.358;2023-05-22T23:21:43;99879.28;;;20.57;69.15
15382;BME280;7789;51.364;12.358;2023-05-22T23:26:51;99880.06;;;20.51;69.51
15382;BME280;7789;51.364;12.358;2023-05-22T23:31:58;99878.81;;;20.47;69.75
15382;BME280;7789;51.364;12.358;2023-05-22T23:37:05;99885.38;;;20.45;70.23
15382;BME280;7789;51.364;12.358;2023-05-22T23:42:11;99887.78;;;20.40;70.55
15382;BME280;7789;51.364;12.358;2023-05-22T23:47:18;99881.06;;;20.37;70.16
15382;BME280;7789;51.364;12.358;2023-05-22T23:52:25;99893.72;;;20.35;71.49
15382;BME280;7789;51.364;12.358;2023-05-22T23:57:30;99885.31;;;20.32;72.18
